Time;durP1;ratioP1;P1;durP2;ratioP2;P2;SDS_P1;SDS_P2;PMS_P1;PMS_P2;Temp;Humidity;BMP_temperature;BMP_pressure;BME280_temperature;BME280_humidity;BME280_pressure;Samples;Min_cycle;Max_cycle;Signal;HPM_P1;HPM_P2
2021/01/26 00:00:14;;;;;;;29.67;18.93;;;0.40;99.90;;;;;;4979634;28;20223;-90
2021/01/26 00:02:40;;;;;;;28.47;19.20;;;0.40;99.90;;;;;;4979642;28;20183;-90
2021/01/26 00:05:07;;;;;;;35.27;19.50;;;0.40;99.90;;;;;;4995408;28;20231;-90
2021/01/26 00:07:33;;;;;;;28.70;18.23;;;0.50;99.90;;;;;;4998864;28;20182;-89
2021/01/26 00:10:00;;;;;;;29.03;18.97;;;0.50;99.90;;;;;;4999175;28;20273;-90
2021/01/26 00:12:26;;;;;;;27.67;18.50;;;0.50;99.90;;;;;;4998613;28;20207;-90
2021/01/26 00:14:52;;;;;;;32.40;19.80;;;0.50;99.90;;;;;;4998958;28;20233;-90
2021/01/26 00:17:18;;;;;;;29.93;20.17;;;0.50;99.90;;;;;;4998913;28;20215;-89
2021/01/26 00:19:44;;;;;;;27.30;18.67;;;0.50;99.90;;;;;;4998551;28;20225;-89
2021/01/26 00:22:10;;;;;;;33.77;19.30;;;0.50;99.90;;;;;;4998684;28;20510;-90
2021/01/26 00:24:35;;;;;;;34.93;20.10;;;0.50;99.90;;;;;;4999058;28;20183;-90
2021/01/26 00:27:01;;;;;;;27.23;18.23;;;0.50;99.90;;;;;;4998712;28;20193;-90
2021/01/26 00:29:27;;;;;;;27.40;19.27;;;0.50;99.90;;;;;;4998766;28;20234;-89
2021/01/26 00:31:53;;;;;;;27.87;18.67;;;0.50;99.90;;;;;;4998390;28;20196;-88
2021/01/26 00:34:19;;;;;;;28.00;18.87;;;0.50;99.90;;;;;;4998853;28;20182;-90
2021/01/26 00:36:44;;;;;;;27.87;18.53;;;0.50;99.90;;;;;;4998611;28;20248;-90
2021/01/26 00:39:10;;;;;;;30.93;18.53;;;0.50;99.90;;;;;;4998643;28;20221;-89
2021/01/26 00:41:36;;;;;;;32.07;19.33;;;0.50;99.90;;;;;;4998427;28;20190;-90
2021/01/26 00:44:02;;;;;;;31.53;19.60;;;0.50;99.90;;;;;;4998641;28;20229;-90
2021/01/26 00:46:27;;;;;;;27.30;18.73;;;0.50;99.90;;;;;;4998395;28;20259;-90
2021/01/26 00:48:53;;;;;;;30.77;18.97;;;0.50;99.90;;;;;;4998530;28;20185;-90
2021/01/26 00:51:19;;;;;;;28.70;18.97;;;0.40;99.90;;;;;;4998251;28;20487;-89
2021/01/26 00:53:44;;;;;;;29.37;20.03;;;0.40;99.90;;;;;;4998310;28;20179;-89
2021/01/26 00:56:10;;;;;;;28.10;18.73;;;0.40;99.90;;;;;;4998402;28;20274;-90
2021/01/26 00:58:36;;;;;;;28.00;18.50;;;0.40;99.90;;;;;;4998291;28;20203;-90
2021/01/26 01:01:02;;;;;;;27.33;19.23;;;0.40;99.90;;;;;;4997935;28;20187;-90
2021/01/26 01:03:28;;;;;;;29.07;19.13;;;0.40;99.90;;;;;;4998033;28;20629;-90
2021/01/26 01:05:54;;;;;;;30.13;19.77;;;0.40;99.90;;;;;;4997448;28;20184;-90
2021/01/26 01:08:20;;;;;;;27.40;18.83;;;0.40;99.90;;;;;;4998213;28;20232;-90
2021/01/26 01:10:46;;;;;;;28.50;17.97;;;0.40;99.90;;;;;;4997895;28;20192;-89
2021/01/26 01:13:12;;;;;;;30.00;19.93;;;0.40;99.90;;;;;;4997013;28;20186;-90
2021/01/26 01:15:39;;;;;;;32.17;19.63;;;0.40;99.90;;;;;;4997879;28;20565;-90
2021/01/26 01:18:06;;;;;;;25.60;19.20;;;0.40;99.90;;;;;;4981728;28;20720;-90
2021/01/26 01:20:32;;;;;;;29.83;19.77;;;0.40;99.90;;;;;;4997932;28;20218;-90
2021/01/26 01:22:58;;;;;;;30.30;19.60;;;0.40;99.90;;;;;;4997497;28;20212;-90
2021/01/26 01:25:24;;;;;;;33.00;19.97;;;0.40;99.90;;;;;;4997588;28;20202;-89
2021/01/26 01:27:50;;;;;;;30.17;19.87;;;0.50;99.90;;;;;;4995799;28;20267;-90
2021/01/26 01:30:20;;;;;;;33.20;20.80;;;0.50;99.90;;;;;;4978094;28;20287;-90
2021/01/26 01:32:46;;;;;;;37.63;20.93;;;0.50;99.90;;;;;;4978177;28;20664;-90
2021/01/26 01:35:12;;;;;;;30.93;19.37;;;0.50;99.90;;;;;;4978297;28;20183;-91
2021/01/26 01:37:38;;;;;;;29.53;19.40;;;0.50;99.90;;;;;;4978150;28;20189;-90
2021/01/26 01:40:06;;;;;;;31.77;21.00;;;0.50;99.90;;;;;;4978039;28;20226;-89
2021/01/26 01:42:32;;;;;;;29.57;20.37;;;0.50;99.90;;;;;;4978877;28;20172;-96
2021/01/26 01:44:58;;;;;;;34.10;21.73;;;0.50;99.90;;;;;;4971184;28;20191;-93
2021/01/26 01:47:32;;;;;;;28.07;19.90;;;0.50;99.90;;;;;;4960921;28;20184;-91
2021/01/26 01:50:01;;;;;;;31.17;21.03;;;0.50;99.90;;;;;;4959598;28;20171;-92
2021/01/26 01:52:34;;;;;;;29.83;19.93;;;0.50;99.90;;;;;;4973709;28;20170;-91
2021/01/26 01:55:12;;;;;;;33.33;21.80;;;0.50;99.90;;;;;;4969393;28;20178;-90
2021/01/26 01:58:06;;;;;;;28.80;20.23;;;0.50;99.90;;;;;;4968230;28;20176;-91
2021/01/26 02:00:34;;;;;;;27.23;18.80;;;0.50;99.90;;;;;;4959098;28;20307;-90
2021/01/26 02:03:08;;;;;;;29.50;20.10;;;0.50;99.90;;;;;;4959124;28;20223;-90
2021/01/26 02:05:34;;;;;;;29.63;20.37;;;0.60;99.90;;;;;;4959982;28;20262;-91
2021/01/26 02:08:00;;;;;;;30.37;20.13;;;0.60;99.90;;;;;;4962523;28;20331;-90
2021/01/26 02:10:26;;;;;;;29.97;19.97;;;0.60;99.90;;;;;;4962753;28;20517;-90
2021/01/26 02:12:52;;;;;;;28.73;19.27;;;0.60;99.90;;;;;;4977792;28;20206;-90
2021/01/26 02:15:19;;;;;;;31.30;20.33;;;0.60;99.90;;;;;;4982013;28;20182;-89
2021/01/26 02:17:56;;;;;;;29.20;18.90;;;0.60;99.90;;;;;;4982053;28;20320;-90
2021/01/26 02:21:09;;;;;;;27.60;19.13;;;0.60;99.90;;;;;;4981494;28;20232;-90
2021/01/26 02:23:59;;;;;;;27.80;18.47;;;0.70;99.90;;;;;;4965577;28;20195;-89
2021/01/26 02:26:52;;;;;;;26.27;18.93;;;0.70;99.90;;;;;;4981506;28;20182;-90
2021/01/26 02:29:45;;;;;;;30.33;20.60;;;0.60;99.90;;;;;;4981450;28;20670;-89
2021/01/26 02:32:33;;;;;;;31.37;19.53;;;0.60;99.90;;;;;;4981035;28;20530;-91
2021/01/26 02:35:34;;;;;;;31.00;20.80;;;0.60;99.90;;;;;;4981463;28;20191;-89
2021/01/26 02:38:42;;;;;;;33.77;21.07;;;0.60;99.90;;;;;;4981469;28;20182;-89
2021/01/26 02:41:27;;;;;;;28.63;19.40;;;0.60;99.90;;;;;;4970359;28;20228;-90
2021/01/26 02:43:52;;;;;;;29.40;20.27;;;0.60;99.90;;;;;;4981490;28;20172;-90
2021/01/26 02:47:04;;;;;;;30.90;19.37;;;0.70;99.90;;;;;;4981389;28;20183;-89
2021/01/26 02:49:48;;;;;;;30.33;20.43;;;0.70;99.90;;;;;;4904080;29;20181;-91
2021/01/26 02:52:50;;;;;;;30.47;20.17;;;0.70;99.90;;;;;;4996892;28;20282;-89
2021/01/26 02:55:27;;;;;;;27.77;18.20;;;0.70;99.90;;;;;;4970882;28;20191;-90
2021/01/26 02:58:01;;;;;;;29.23;18.60;;;0.70;99.90;;;;;;4981023;28;20187;-91
2021/01/26 03:00:31;;;;;;;28.30;18.53;;;0.70;99.90;;;;;;4980874;28;20207;-90
2021/01/26 03:03:07;;;;;;;27.60;17.30;;;0.70;99.90;;;;;;4981000;28;20168;-89
2021/01/26 03:05:44;;;;;;;27.33;18.63;;;0.70;99.90;;;;;;4975256;28;20186;-90
2021/01/26 03:08:19;;;;;;;26.50;17.83;;;0.70;99.90;;;;;;4975746;28;20204;-90
2021/01/26 03:11:27;;;;;;;24.50;16.97;;;0.70;99.90;;;;;;4961766;28;20180;-90
2021/01/26 03:14:01;;;;;;;23.27;16.17;;;0.70;99.90;;;;;;4926203;28;20211;-90
2021/01/26 03:16:29;;;;;;;24.43;16.10;;;0.70;99.90;;;;;;4961713;28;20179;-90
2021/01/26 03:19:04;;;;;;;23.10;16.33;;;0.70;99.90;;;;;;4961240;28;20207;-89
2021/01/26 03:21:32;;;;;;;26.17;16.40;;;0.70;99.90;;;;;;4961063;28;20178;-91
2021/01/26 03:24:07;;;;;;;22.97;16.43;;;0.70;99.90;;;;;;4961208;28;20608;-91
2021/01/26 03:26:35;;;;;;;25.23;15.43;;;0.70;99.90;;;;;;4960643;28;20545;-90
2021/01/26 03:29:05;;;;;;;20.03;15.00;;;0.80;99.90;;;;;;4972391;28;20230;-91
2021/01/26 03:31:42;;;;;;;22.97;15.77;;;0.80;99.90;;;;;;5002600;28;20184;-89
2021/01/26 03:34:08;;;;;;;21.80;15.30;;;0.80;99.90;;;;;;5000044;28;20613;-90
2021/01/26 03:36:35;;;;;;;21.43;14.87;;;0.80;99.90;;;;;;4999339;28;20233;-90
2021/01/26 03:39:03;;;;;;;21.30;14.40;;;0.80;99.90;;;;;;4999530;28;20539;-91
2021/01/26 03:41:29;;;;;;;20.17;14.67;;;0.80;99.90;;;;;;4999489;28;20504;-90
2021/01/26 03:43:56;;;;;;;22.47;15.10;;;0.80;99.90;;;;;;4999780;28;20491;-90
2021/01/26 03:46:46;;;;;;;22.00;14.63;;;0.80;99.90;;;;;;4999488;28;20180;-90
2021/01/26 03:49:49;;;;;;;20.67;14.70;;;0.70;99.90;;;;;;4999617;28;20224;-90
2021/01/26 03:52:17;;;;;;;21.60;14.40;;;0.70;99.90;;;;;;4999282;28;20554;-91
2021/01/26 03:55:11;;;;;;;22.37;15.13;;;0.70;99.90;;;;;;4999713;28;20179;-90
2021/01/26 03:57:52;;;;;;;20.80;14.17;;;0.70;99.90;;;;;;4999630;28;20171;-89
2021/01/26 04:00:37;;;;;;;20.57;14.40;;;0.70;99.90;;;;;;4999144;28;20215;-91
2021/01/26 04:03:32;;;;;;;21.83;13.93;;;0.80;99.90;;;;;;4999205;28;20185;-91
2021/01/26 04:06:03;;;;;;;19.93;13.80;;;0.70;99.90;;;;;;4999290;28;20602;-90
2021/01/26 04:08:39;;;;;;;20.73;15.07;;;0.70;99.90;;;;;;4999204;28;20183;-90
2021/01/26 04:11:16;;;;;;;23.27;15.27;;;0.70;99.90;;;;;;4999122;28;20175;-90
2021/01/26 04:14:08;;;;;;;22.80;14.17;;;0.70;99.90;;;;;;4998697;28;20192;-91
2021/01/26 04:17:15;;;;;;;22.47;14.47;;;0.70;99.90;;;;;;4999164;28;20173;-91
2021/01/26 04:19:48;;;;;;;19.47;14.23;;;0.70;99.90;;;;;;4998492;28;20206;-91
2021/01/26 04:22:16;;;;;;;20.87;14.43;;;0.70;99.90;;;;;;4998779;28;20176;-90
2021/01/26 04:24:41;;;;;;;21.37;14.57;;;0.70;99.90;;;;;;4999112;28;20189;-91
2021/01/26 04:27:18;;;;;;;21.80;14.33;;;0.70;99.90;;;;;;4998662;28;20175;-90
2021/01/26 04:29:44;;;;;;;22.03;15.10;;;0.70;99.90;;;;;;4980914;28;20312;-90
2021/01/26 04:32:10;;;;;;;18.20;13.67;;;0.70;99.90;;;;;;4979346;28;20611;-90
2021/01/26 04:34:35;;;;;;;22.27;14.80;;;0.80;99.90;;;;;;4979406;28;20190;-90
2021/01/26 04:37:01;;;;;;;20.43;14.63;;;0.90;99.90;;;;;;4978963;28;20630;-90
2021/01/26 04:39:27;;;;;;;23.67;15.57;;;0.90;99.90;;;;;;4996444;28;20214;-90
2021/01/26 04:42:05;;;;;;;22.27;14.70;;;0.90;99.90;;;;;;4978983;28;20186;-90
2021/01/26 04:45:02;;;;;;;21.13;14.27;;;0.90;99.90;;;;;;4979282;28;20182;-91
2021/01/26 04:47:54;;;;;;;21.13;14.63;;;0.90;99.90;;;;;;4979184;28;20212;-91
2021/01/26 04:50:42;;;;;;;23.30;14.73;;;0.90;99.90;;;;;;4992164;28;20216;-91
2021/01/26 04:53:45;;;;;;;19.67;13.80;;;0.90;99.90;;;;;;4978763;28;20185;-91
2021/01/26 04:56:33;;;;;;;23.27;15.73;;;0.80;99.90;;;;;;4979169;28;20175;-91
2021/01/26 04:59:28;;;;;;;22.73;15.67;;;0.80;99.90;;;;;;4978908;28;20254;-90
2021/01/26 05:02:16;;;;;;;22.40;15.50;;;0.80;99.90;;;;;;4978904;28;20168;-91
2021/01/26 05:04:46;;;;;;;22.03;15.53;;;0.80;99.90;;;;;;4978682;28;20196;-91
2021/01/26 05:07:23;;;;;;;24.77;16.73;;;0.80;99.90;;;;;;4978433;28;20182;-91
2021/01/26 05:10:12;;;;;;;22.47;15.83;;;0.80;99.90;;;;;;4996321;28;20206;-90
2021/01/26 05:13:05;;;;;;;21.80;15.10;;;0.80;99.90;;;;;;4979118;28;20172;-91
2021/01/26 05:15:36;;;;;;;23.50;15.20;;;0.80;99.90;;;;;;4979024;28;20176;-91
2021/01/26 05:18:22;;;;;;;21.80;15.43;;;0.80;99.90;;;;;;4979937;28;20193;-91
2021/01/26 05:20:59;;;;;;;23.07;15.37;;;0.80;99.90;;;;;;4959284;28;20607;-91
2021/01/26 05:23:34;;;;;;;22.33;15.63;;;0.80;99.90;;;;;;4959399;28;20177;-91
2021/01/26 05:26:00;;;;;;;21.73;15.10;;;0.80;99.90;;;;;;4959413;28;20562;-91
2021/01/26 05:28:26;;;;;;;22.33;15.17;;;0.70;99.90;;;;;;4976762;28;20235;-91
2021/01/26 05:31:04;;;;;;;22.17;15.73;;;0.80;99.90;;;;;;4976326;28;20223;-91
2021/01/26 05:33:30;;;;;;;21.77;15.27;;;0.80;99.90;;;;;;4959151;28;20244;-91
2021/01/26 05:36:00;;;;;;;23.93;14.73;;;0.80;99.90;;;;;;4966561;28;20226;-92
2021/01/26 05:38:25;;;;;;;20.80;14.70;;;0.80;99.90;;;;;;4981798;28;20490;-93
2021/01/26 05:41:04;;;;;;;20.73;14.63;;;0.80;99.90;;;;;;4979032;28;20199;-94
2021/01/26 05:43:32;;;;;;;21.27;14.00;;;0.80;99.90;;;;;;4981295;28;20160;-91
2021/01/26 05:46:01;;;;;;;21.90;14.40;;;0.80;99.90;;;;;;4981576;28;20185;-91
2021/01/26 05:48:28;;;;;;;20.67;14.87;;;0.70;99.90;;;;;;4981195;28;20206;-91
2021/01/26 05:51:16;;;;;;;21.00;14.53;;;0.80;99.90;;;;;;4997210;28;20217;-90
2021/01/26 05:53:43;;;;;;;20.67;14.03;;;0.70;99.90;;;;;;4965595;28;20239;-90
2021/01/26 05:56:15;;;;;;;20.60;14.33;;;0.70;99.90;;;;;;4981992;28;20180;-91
2021/01/26 05:58:46;;;;;;;23.40;14.20;;;0.70;99.90;;;;;;4981659;28;20191;-91
2021/01/26 06:01:34;;;;;;;20.00;14.33;;;0.70;99.90;;;;;;4980068;28;20209;-90
2021/01/26 06:04:17;;;;;;;20.67;14.63;;;0.70;99.90;;;;;;4980532;28;20172;-91
2021/01/26 06:07:03;;;;;;;21.00;14.23;;;0.80;99.90;;;;;;4979494;28;20181;-91
2021/01/26 06:09:39;;;;;;;21.27;14.97;;;0.80;99.90;;;;;;4958119;28;20200;-91
2021/01/26 06:12:23;;;;;;;24.70;15.37;;;0.80;99.90;;;;;;4958732;28;20180;-91
2021/01/26 06:14:55;;;;;;;22.57;15.23;;;0.80;99.90;;;;;;4975915;28;20200;-91
2021/01/26 06:17:30;;;;;;;21.73;14.50;;;0.80;99.90;;;;;;4958563;28;20184;-91
2021/01/26 06:20:22;;;;;;;21.37;14.73;;;0.80;99.90;;;;;;4958488;28;20250;-91
2021/01/26 06:22:50;;;;;;;21.07;14.63;;;0.80;99.90;;;;;;4974463;28;20176;-91
2021/01/26 06:25:33;;;;;;;19.50;14.60;;;0.80;99.90;;;;;;4974687;28;20503;-91
2021/01/26 06:28:29;;;;;;;22.60;15.17;;;0.80;99.90;;;;;;4974485;28;20691;-91
2021/01/26 06:31:18;;;;;;;20.87;14.03;;;0.80;99.90;;;;;;4974014;28;20176;-90
2021/01/26 06:34:03;;;;;;;20.53;14.23;;;0.80;99.90;;;;;;4958707;28;20194;-91
2021/01/26 06:36:37;;;;;;;20.50;14.50;;;0.80;99.90;;;;;;4958083;28;20211;-91
2021/01/26 06:39:29;;;;;;;21.63;14.70;;;0.80;99.90;;;;;;4958540;28;20265;-91
2021/01/26 06:42:07;;;;;;;19.60;13.87;;;0.80;99.90;;;;;;4964519;28;20203;-90
2021/01/26 06:45:24;;;;;;;22.27;15.37;;;0.80;99.90;;;;;;4959064;28;20173;-91
2021/01/26 06:48:21;;;;;;;21.70;14.87;;;0.80;99.90;;;;;;4919235;28;20196;-91
2021/01/26 06:51:06;;;;;;;21.33;14.97;;;0.80;99.90;;;;;;4958148;28;20274;-90
2021/01/26 06:53:38;;;;;;;19.77;14.97;;;0.80;99.90;;;;;;4961674;28;20637;-90
2021/01/26 06:56:38;;;;;;;21.57;15.53;;;0.80;99.90;;;;;;4961889;28;20270;-91
2021/01/26 06:59:21;;;;;;;23.90;15.33;;;0.80;99.90;;;;;;4960906;28;20282;-91
2021/01/26 07:02:13;;;;;;;22.70;15.43;;;0.80;99.90;;;;;;4961541;28;20196;-89
2021/01/26 07:05:02;;;;;;;20.20;14.43;;;0.80;99.90;;;;;;4961715;28;20186;-91
2021/01/26 07:07:52;;;;;;;20.23;14.73;;;0.90;99.90;;;;;;4978742;28;20173;-91
2021/01/26 07:10:38;;;;;;;23.47;15.57;;;0.90;99.90;;;;;;4961809;28;20559;-91
2021/01/26 07:13:30;;;;;;;22.47;16.27;;;0.90;99.90;;;;;;4961672;28;20181;-90
2021/01/26 07:16:22;;;;;;;27.60;18.53;;;0.90;99.90;;;;;;4961517;28;20169;-90
2021/01/26 07:19:06;;;;;;;24.03;17.07;;;0.90;99.90;;;;;;4961569;28;20208;-90
2021/01/26 07:21:56;;;;;;;23.63;16.43;;;0.90;99.90;;;;;;4978871;28;20650;-91
2021/01/26 07:24:34;;;;;;;25.30;17.47;;;0.90;99.90;;;;;;4978491;28;20177;-90
2021/01/26 07:27:11;;;;;;;26.80;17.77;;;0.90;99.90;;;;;;4961238;28;20208;-90
2021/01/26 07:30:14;;;;;;;24.30;16.93;;;0.90;99.90;;;;;;4977382;28;20235;-90
2021/01/26 07:33:00;;;;;;;26.57;17.50;;;0.90;99.90;;;;;;4997777;28;20211;-90
2021/01/26 07:35:57;;;;;;;22.33;16.07;;;1.00;99.90;;;;;;4980601;28;20718;-91
2021/01/26 07:38:41;;;;;;;22.33;14.80;;;0.90;99.90;;;;;;4997622;28;20611;-90
2021/01/26 07:41:47;;;;;;;23.77;15.80;;;0.90;99.90;;;;;;4997385;28;20194;-91
2021/01/26 07:44:40;;;;;;;23.70;16.93;;;0.90;99.90;;;;;;5000092;28;20174;-90
2021/01/26 07:47:41;;;;;;;26.23;16.93;;;0.90;99.90;;;;;;4999437;28;20499;-91
2021/01/26 07:50:33;;;;;;;23.00;16.37;;;0.90;99.90;;;;;;4999701;28;20273;-90
2021/01/26 07:53:24;;;;;;;22.93;16.40;;;0.80;99.90;;;;;;4999036;28;20664;-90
2021/01/26 07:55:58;;;;;;;23.33;16.07;;;0.90;99.90;;;;;;4999362;28;20296;-91
2021/01/26 07:58:25;;;;;;;25.57;17.03;;;0.90;99.90;;;;;;4999732;28;20171;-91
2021/01/26 08:00:55;;;;;;;22.27;15.93;;;0.90;99.90;;;;;;4999876;28;20198;-92
2021/01/26 08:03:22;;;;;;;26.80;17.70;;;0.80;99.90;;;;;;4998419;28;20170;-92
2021/01/26 08:05:51;;;;;;;24.80;16.70;;;0.90;99.90;;;;;;4999036;28;20193;-92
2021/01/26 08:08:27;;;;;;;22.93;16.10;;;0.90;99.90;;;;;;4998524;28;20183;-92
2021/01/26 08:11:05;;;;;;;22.40;15.33;;;0.90;99.90;;;;;;4998707;28;20170;-92
2021/01/26 08:13:32;;;;;;;21.97;15.83;;;0.90;99.90;;;;;;4998685;28;20202;-92
2021/01/26 08:16:14;;;;;;;23.87;16.57;;;0.90;99.90;;;;;;4999244;28;20167;-91
2021/01/26 08:18:41;;;;;;;26.87;16.13;;;0.90;99.90;;;;;;4992450;28;20190;-92
2021/01/26 08:21:39;;;;;;;24.80;17.20;;;0.90;99.90;;;;;;4996222;28;20297;-92
2021/01/26 08:24:08;;;;;;;24.40;16.60;;;0.90;99.90;;;;;;4998813;28;20175;-93
2021/01/26 08:26:35;;;;;;;24.93;16.93;;;0.90;99.90;;;;;;4998379;28;20195;-91
2021/01/26 08:29:00;;;;;;;24.13;16.73;;;1.00;99.90;;;;;;5012991;28;20277;-91
2021/01/26 08:31:35;;;;;;;27.07;18.20;;;1.00;99.90;;;;;;4987329;28;20177;-91
2021/01/26 08:34:20;;;;;;;28.63;18.50;;;1.00;99.90;;;;;;4996743;28;20179;-90
2021/01/26 08:36:46;;;;;;;27.13;18.43;;;1.00;99.90;;;;;;4995446;28;20603;-91
2021/01/26 08:39:15;;;;;;;25.63;17.80;;;1.00;99.90;;;;;;4997619;28;20210;-91
2021/01/26 08:41:44;;;;;;;28.37;18.10;;;1.10;99.90;;;;;;4989662;28;20176;-90
2021/01/26 08:44:22;;;;;;;27.97;18.07;;;1.10;99.90;;;;;;4992799;28;20638;-91
2021/01/26 08:46:53;;;;;;;26.00;17.40;;;1.10;99.90;;;;;;4987032;28;20566;-90
2021/01/26 08:49:35;;;;;;;26.47;18.33;;;1.10;99.90;;;;;;4981600;28;20187;-90
2021/01/26 08:52:20;;;;;;;26.03;18.67;;;1.00;99.90;;;;;;4978488;28;20183;-90
2021/01/26 08:54:48;;;;;;;26.47;18.30;;;1.10;99.90;;;;;;4984047;28;20613;-90
2021/01/26 08:57:29;;;;;;;29.77;20.23;;;1.10;99.90;;;;;;4978564;28;20205;-91
2021/01/26 09:00:19;;;;;;;32.23;21.60;;;1.10;99.90;;;;;;4978766;28;20675;-90
2021/01/26 09:02:52;;;;;;;26.67;18.33;;;1.10;99.90;;;;;;4988747;28;20626;-89
2021/01/26 09:05:41;;;;;;;53.63;30.90;;;1.10;99.90;;;;;;4996688;28;20609;-89
2021/01/26 09:08:07;;;;;;;30.13;20.23;;;1.20;99.90;;;;;;4984684;28;20183;-90
2021/01/26 09:11:00;;;;;;;28.33;19.50;;;1.20;99.90;;;;;;4998004;28;20633;-90
2021/01/26 09:13:32;;;;;;;31.53;19.73;;;1.20;99.90;;;;;;4990428;28;20213;-91
2021/01/26 09:16:03;;;;;;;29.17;20.37;;;1.30;99.90;;;;;;4978577;28;20221;-90
2021/01/26 09:18:31;;;;;;;28.00;20.50;;;1.40;99.90;;;;;;4963194;28;20174;-90
2021/01/26 09:21:07;;;;;;;30.57;20.80;;;1.30;99.90;;;;;;4995629;28;20191;-90
2021/01/26 09:23:35;;;;;;;27.67;19.70;;;1.40;99.90;;;;;;4978251;28;20226;-91
2021/01/26 09:26:17;;;;;;;32.80;21.97;;;1.40;99.90;;;;;;4978460;28;20611;-90
2021/01/26 09:28:47;;;;;;;31.60;21.20;;;1.40;99.90;;;;;;4978210;28;20249;-90
2021/01/26 09:31:15;;;;;;;34.67;21.07;;;1.40;99.90;;;;;;4977419;28;20190;-91
2021/01/26 09:33:41;;;;;;;41.20;26.33;;;1.40;99.90;;;;;;4977971;28;20684;-96
2021/01/26 09:36:14;;;;;;;31.80;22.17;;;1.50;99.90;;;;;;4977834;28;20730;-95
2021/01/26 09:38:44;;;;;;;35.00;24.37;;;1.50;99.90;;;;;;4977439;28;20265;-95
2021/01/26 09:41:22;;;;;;;33.20;22.03;;;1.60;99.90;;;;;;4978506;28;20274;-90
2021/01/26 09:43:50;;;;;;;36.50;24.90;;;1.60;99.90;;;;;;4978304;28;20719;-90
2021/01/26 09:46:38;;;;;;;35.73;23.67;;;1.70;99.90;;;;;;4977621;28;20240;-87
2021/01/26 09:49:12;;;;;;;36.77;24.37;;;1.70;99.90;;;;;;4978078;28;20605;-88
2021/01/26 10:25:17;;;;;;;33.37;25.13;;;2.00;99.90;;;;;;6307380;22;951437;-96
2021/01/26 10:27:43;;;;;;;42.97;26.63;;;2.10;99.90;;;;;;6324342;22;20257;-96
2021/01/26 10:30:16;;;;;;;34.67;24.60;;;2.10;99.90;;;;;;6322676;22;20494;-96
2021/01/26 10:32:49;;;;;;;37.43;24.53;;;2.10;99.90;;;;;;6322309;22;20259;-96
2021/01/26 10:35:46;;;;;;;34.60;23.97;;;2.10;99.90;;;;;;6320801;22;20195;-96
2021/01/26 10:38:32;;;;;;;40.37;26.20;;;2.10;99.90;;;;;;6316184;22;20189;-96
2021/01/26 10:41:17;;;;;;;40.77;27.43;;;2.10;99.90;;;;;;6321518;22;20150;-96
2021/01/26 10:43:45;;;;;;;43.57;28.67;;;2.10;99.90;;;;;;6317254;22;20151;-95
2021/01/26 10:46:29;;;;;;;40.53;27.40;;;2.10;99.90;;;;;;6318444;22;20161;-96
2021/01/26 10:49:10;;;;;;;41.40;28.43;;;2.10;99.90;;;;;;6319418;22;20175;-95
2021/01/26 10:51:43;;;;;;;41.47;27.97;;;2.10;99.90;;;;;;6320451;22;20163;-95
2021/01/26 10:54:10;;;;;;;41.30;28.10;;;2.10;99.90;;;;;;6317558;22;20227;-95
2021/01/26 10:56:37;;;;;;;43.23;29.33;;;2.10;99.90;;;;;;6318142;22;20150;-96
2021/01/26 10:59:04;;;;;;;46.90;30.00;;;2.20;99.90;;;;;;6322398;22;20175;-95
2021/01/26 11:01:30;;;;;;;39.10;27.87;;;2.20;99.90;;;;;;6319049;22;20147;-95
2021/01/26 11:03:57;;;;;;;43.73;29.13;;;2.30;99.90;;;;;;6319686;22;20222;-96
2021/01/26 11:06:24;;;;;;;48.37;30.90;;;2.30;99.90;;;;;;6320455;22;20156;-95
2021/01/26 11:08:51;;;;;;;52.30;31.80;;;2.30;99.90;;;;;;6319374;22;20246;-95
2021/01/26 11:11:19;;;;;;;46.57;31.73;;;2.40;99.90;;;;;;6319564;22;20148;-95
2021/01/26 11:13:46;;;;;;;43.80;28.60;;;2.40;99.90;;;;;;6318760;22;20172;-95
2021/01/26 11:16:12;;;;;;;48.70;29.90;;;2.40;99.90;;;;;;6318336;22;20228;-95
2021/01/26 11:18:39;;;;;;;48.73;30.53;;;2.40;99.90;;;;;;6318090;22;20248;-96
2021/01/26 11:21:05;;;;;;;47.33;31.10;;;2.40;99.90;;;;;;6316315;22;20174;-96
2021/01/26 11:23:31;;;;;;;47.27;29.83;;;2.40;99.90;;;;;;6320258;22;20152;-96
2021/01/26 11:25:57;;;;;;;43.30;28.57;;;2.50;99.90;;;;;;6312821;22;20228;-95
2021/01/26 11:28:23;;;;;;;44.40;28.53;;;2.50;99.90;;;;;;6313885;22;20183;-95
2021/01/26 11:30:49;;;;;;;47.00;29.77;;;2.60;99.90;;;;;;6315784;22;20171;-96
2021/01/26 11:33:14;;;;;;;47.53;30.03;;;2.60;99.90;;;;;;6315863;22;20613;-95
2021/01/26 11:35:41;;;;;;;45.57;29.50;;;2.50;99.90;;;;;;6315979;22;20145;-95
2021/01/26 11:38:08;;;;;;;44.73;28.47;;;2.50;99.90;;;;;;6315775;22;20662;-96
2021/01/26 11:40:36;;;;;;;49.50;31.73;;;2.50;99.90;;;;;;6313720;22;20152;-95
2021/01/26 11:43:03;;;;;;;52.20;30.53;;;2.50;99.90;;;;;;6312956;22;20182;-95
2021/01/26 11:45:33;;;;;;;44.43;29.70;;;2.50;99.90;;;;;;6312100;22;20145;-95
2021/01/26 11:48:00;;;;;;;45.17;29.70;;;2.60;99.90;;;;;;6311831;22;20175;-95
2021/01/26 11:50:27;;;;;;;43.63;28.30;;;2.60;99.90;;;;;;6311939;22;20140;-95
2021/01/26 11:52:56;;;;;;;46.43;28.60;;;2.70;99.90;;;;;;6311041;22;20234;-96
2021/01/26 11:55:26;;;;;;;40.63;27.60;;;2.70;99.90;;;;;;6310232;22;20152;-95
2021/01/26 11:57:52;;;;;;;42.57;28.83;;;2.80;99.90;;;;;;6312746;22;20247;-94
2021/01/26 12:00:23;;;;;;;45.27;28.53;;;2.90;99.90;;;;;;6312672;22;20140;-95
2021/01/26 12:02:51;;;;;;;40.90;27.43;;;2.90;99.90;;;;;;6310907;22;20227;-96
2021/01/26 12:05:21;;;;;;;43.43;28.43;;;3.00;99.90;;;;;;6312833;22;20145;-94
2021/01/26 12:07:48;;;;;;;42.27;26.77;;;3.00;99.90;;;;;;6312659;22;20181;-96
2021/01/26 12:10:17;;;;;;;35.47;23.50;;;3.00;99.90;;;;;;6314058;22;20227;-93
2021/01/26 12:12:42;;;;;;;36.20;23.83;;;3.00;99.90;;;;;;6312718;22;20167;-94
2021/01/26 12:15:17;;;;;;;38.93;26.47;;;2.80;99.90;;;;;;6312291;22;20170;-95
2021/01/26 12:17:43;;;;;;;40.53;25.90;;;2.80;99.90;;;;;;6311242;22;20182;-96
2021/01/26 12:20:09;;;;;;;39.50;24.47;;;2.80;99.90;;;;;;6313263;22;20140;-96
2021/01/26 12:22:35;;;;;;;39.30;25.57;;;2.60;99.90;;;;;;6313329;22;20163;-96
2021/01/26 12:25:01;;;;;;;41.37;27.33;;;2.60;99.90;;;;;;6295575;22;20560;-96
2021/01/26 12:27:28;;;;;;;33.90;23.10;;;2.70;99.90;;;;;;6266603;22;20495;-96
2021/01/26 12:29:54;;;;;;;35.90;23.77;;;2.70;99.90;;;;;;6223165;22;20336;-96
2021/01/26 12:32:23;;;;;;;32.80;22.50;;;2.80;99.90;;;;;;6235667;23;20162;-95
2021/01/26 12:34:52;;;;;;;36.77;23.67;;;2.80;99.90;;;;;;6242155;22;20278;-96
2021/01/26 12:37:21;;;;;;;38.13;24.80;;;2.90;99.90;;;;;;6217492;23;20154;-96
2021/01/26 12:39:48;;;;;;;37.80;24.70;;;2.90;99.90;;;;;;6216452;22;20188;-96
2021/01/26 12:42:16;;;;;;;39.37;26.97;;;2.90;99.90;;;;;;6236781;23;20170;-96
2021/01/26 12:44:58;;;;;;;41.47;25.63;;;2.90;99.90;;;;;;6215465;22;20184;-96
2021/01/26 12:47:24;;;;;;;37.47;24.43;;;2.90;99.90;;;;;;6234263;23;20248;-96
2021/01/26 12:49:51;;;;;;;40.80;23.57;;;2.80;99.90;;;;;;6216828;22;20188;-94
2021/01/26 12:52:18;;;;;;;37.10;23.60;;;2.70;99.90;;;;;;6234502;23;20173;-96
2021/01/26 12:54:55;;;;;;;37.87;23.83;;;2.70;99.90;;;;;;6214497;22;20199;-95
2021/01/26 12:57:22;;;;;;;38.60;24.13;;;2.70;99.90;;;;;;6236075;23;20173;-94
2021/01/26 12:59:59;;;;;;;35.40;23.33;;;2.70;99.90;;;;;;6216137;22;20220;-96
2021/01/26 13:02:27;;;;;;;34.90;22.43;;;2.60;99.90;;;;;;6237194;23;20194;-96
2021/01/26 13:04:53;;;;;;;30.63;21.57;;;2.60;99.90;;;;;;6217579;22;20197;-95
2021/01/26 13:07:23;;;;;;;29.50;20.60;;;2.70;99.90;;;;;;6236410;23;20158;-94
2021/01/26 13:09:49;;;;;;;32.77;20.33;;;2.80;99.90;;;;;;6215521;22;20287;-96
2021/01/26 13:12:18;;;;;;;30.43;20.30;;;2.70;99.90;;;;;;6235611;23;20197;-94
2021/01/26 13:14:56;;;;;;;31.37;20.23;;;2.80;99.90;;;;;;6213043;22;20200;-94
2021/01/26 13:17:21;;;;;;;29.30;18.60;;;2.70;99.90;;;;;;6235042;23;20713;-96
2021/01/26 13:19:54;;;;;;;24.80;17.10;;;2.60;99.90;;;;;;6212084;22;20319;-94
2021/01/26 13:22:23;;;;;;;29.20;19.10;;;2.60;99.90;;;;;;6234811;23;20172;-95
2021/01/26 13:24:50;;;;;;;36.80;19.77;;;2.50;99.90;;;;;;6212044;22;20208;-94
2021/01/26 13:27:16;;;;;;;27.70;18.07;;;2.50;99.90;;;;;;6238464;23;20208;-96
2021/01/26 13:29:49;;;;;;;26.70;18.27;;;2.60;99.90;;;;;;6213885;22;20248;-93
2021/01/26 13:32:15;;;;;;;27.00;17.50;;;2.50;99.90;;;;;;6237027;23;20158;-95
2021/01/26 13:34:45;;;;;;;25.37;18.33;;;2.50;99.90;;;;;;6207670;22;20190;-94
2021/01/26 13:37:11;;;;;;;24.60;16.97;;;2.40;99.90;;;;;;6233548;23;20252;-95
2021/01/26 13:39:37;;;;;;;30.07;18.63;;;2.40;99.90;;;;;;6203636;22;20623;-95
2021/01/26 13:42:03;;;;;;;27.00;16.83;;;2.40;99.90;;;;;;6233984;23;20625;-96
2021/01/26 13:44:30;;;;;;;23.03;15.80;;;2.50;99.90;;;;;;6199723;22;20569;-94
2021/01/26 13:46:56;;;;;;;23.50;16.30;;;2.60;99.90;;;;;;6235498;23;20173;-94